createdAt,value
2023-01-05T00:01:04.641Z,100346.97
2023-01-05T00:03:32.890Z,100336.56
2023-01-05T00:06:05.164Z,100323.59
2023-01-05T00:08:37.000Z,100314.91
2023-01-05T00:11:38.117Z,100300.19
2023-01-05T00:14:26.049Z,100291.59
2023-01-05T00:17:12.173Z,100280.31
2023-01-05T00:19:58.432Z,100281.06
2023-01-05T00:22:34.716Z,100285.44
2023-01-05T00:25:12.232Z,100269.00
2023-01-05T00:27:45.523Z,100264.53
2023-01-05T00:30:15.353Z,100261.88
2023-01-05T00:32:43.652Z,100267.94
2023-01-05T00:35:12.334Z,100271.50
2023-01-05T00:37:40.488Z,100265.34
2023-01-05T00:40:10.700Z,100276.69
2023-01-05T00:42:38.472Z,100303.56
2023-01-05T00:45:07.442Z,100277.31
2023-01-05T00:47:34.940Z,100269.50
2023-01-05T00:50:02.639Z,100270.50
2023-01-05T00:52:30.356Z,100280.19
2023-01-05T00:54:57.759Z,100264.53
2023-01-05T00:57:25.572Z,100272.31
2023-01-05T00:59:53.629Z,100256.75
2023-01-05T01:02:21.262Z,100262.84
2023-01-05T01:04:49.717Z,100276.81
2023-01-05T01:07:17.358Z,100272.38
2023-01-05T01:09:44.804Z,100261.19
2023-01-05T01:12:12.298Z,100265.50
2023-01-05T01:14:41.368Z,100261.13
2023-01-05T01:17:08.780Z,100266.34
2023-01-05T01:19:36.859Z,100271.47
2023-01-05T01:22:04.866Z,100265.41
2023-01-05T01:24:33.574Z,100248.06
2023-01-05T01:27:00.949Z,100250.69
2023-01-05T01:29:29.610Z,100251.63
2023-01-05T01:31:56.972Z,100257.53
2023-01-05T01:34:24.655Z,100248.06
2023-01-05T01:36:55.634Z,100240.25
2023-01-05T01:39:23.713Z,100236.78
2023-01-05T01:41:51.709Z,100245.56
2023-01-05T01:44:47.657Z,100234.19
2023-01-05T01:47:33.698Z,100240.34
2023-01-05T01:50:05.789Z,100229.84
2023-01-05T01:52:33.762Z,100209.97
2023-01-05T01:55:02.488Z,100217.84
2023-01-05T01:57:30.112Z,100192.69
2023-01-05T01:59:59.507Z,100221.13
2023-01-05T02:02:28.578Z,100202.94
2023-01-05T02:05:00.339Z,100183.06
2023-01-05T02:07:30.294Z,100213.37
2023-01-05T02:09:58.077Z,100195.03
2023-01-05T02:12:53.450Z,100203.72
2023-01-05T02:15:40.170Z,100198.50
2023-01-05T02:18:27.714Z,100219.09
2023-01-05T02:21:16.736Z,100207.97
2023-01-05T02:24:18.877Z,100200.31
2023-01-05T02:27:05.529Z,100185.56
2023-01-05T02:29:52.252Z,100162.97
2023-01-05T02:32:23.206Z,100172.56
2023-01-05T02:34:56.687Z,100169.94
2023-01-05T02:37:28.169Z,100156.88
2023-01-05T02:40:05.506Z,100155.19
2023-01-05T02:42:35.813Z,100154.38
2023-01-05T02:45:07.743Z,100159.56
2023-01-05T02:47:38.416Z,100158.75
2023-01-05T02:50:11.193Z,100153.53
2023-01-05T02:52:42.873Z,100157.00
2023-01-05T02:55:13.637Z,100164.88
2023-01-05T02:57:48.460Z,100152.56
2023-01-05T03:00:38.382Z,100123.97
2023-01-05T03:03:22.068Z,100121.44
2023-01-05T03:05:56.374Z,100117.06
2023-01-05T03:08:32.447Z,100124.00
2023-01-05T03:11:22.330Z,100140.22
2023-01-05T03:14:20.691Z,100129.09
2023-01-05T03:16:50.193Z,100120.44
2023-01-05T03:19:38.463Z,100106.56
2023-01-05T03:22:34.105Z,100108.31
2023-01-05T03:25:22.504Z,100109.25
2023-01-05T03:28:10.044Z,100113.62
2023-01-05T03:31:05.542Z,100111.03
2023-01-05T03:34:01.986Z,100104.09
2023-01-05T03:36:31.389Z,100103.19
2023-01-05T03:39:01.030Z,100130.94
2023-01-05T03:41:31.017Z,100138.63
2023-01-05T03:43:58.973Z,100099.72
2023-01-05T03:46:28.032Z,100080.72
2023-01-05T03:48:55.511Z,100053.75
2023-01-05T03:51:23.729Z,100037.28
2023-01-05T03:53:51.196Z,100040.69
2023-01-05T03:56:18.786Z,100027.78
2023-01-05T03:58:46.558Z,100020.78
2023-01-05T04:01:14.632Z,100024.28
2023-01-05T04:03:43.180Z,100017.38
2023-01-05T04:06:11.567Z,100029.53
2023-01-05T04:08:39.355Z,100017.34
2023-01-05T04:11:14.969Z,100028.62
2023-01-05T04:13:44.553Z,100026.94
2023-01-05T04:16:12.893Z,100033.91
2023-01-05T04:18:41.097Z,100032.09
2023-01-05T04:21:09.973Z,100040.81
2023-01-05T04:23:38.405Z,100036.47
2023-01-05T04:26:06.015Z,100037.28
2023-01-05T04:28:33.842Z,100041.63
2023-01-05T04:31:01.984Z,100038.13
2023-01-05T04:33:30.185Z,100032.16
2023-01-05T04:35:58.508Z,100034.72
2023-01-05T04:38:26.528Z,100039.97
2023-01-05T04:40:54.132Z,100034.72
2023-01-05T04:43:24.173Z,100027.78
2023-01-05T04:45:51.935Z,100011.31
2023-01-05T04:48:19.662Z,100023.37
2023-01-05T04:50:53.650Z,100021.72
2023-01-05T04:53:23.318Z,100023.47
2023-01-05T04:55:51.748Z,100033.91
2023-01-05T04:58:20.631Z,100033.84
2023-01-05T05:00:49.794Z,100023.41
2023-01-05T05:03:17.900Z,100016.41
2023-01-05T05:05:45.476Z,100012.97
2023-01-05T05:08:14.435Z,99999.97
2023-01-05T05:10:41.912Z,100012.12
2023-01-05T05:13:09.416Z,100005.19
2023-01-05T05:15:38.597Z,100008.69
2023-01-05T05:18:09.423Z,100011.31
2023-01-05T05:20:41.833Z,100004.31
2023-01-05T05:23:09.588Z,100007.78
2023-01-05T05:25:37.622Z,99996.50
2023-01-05T05:28:05.563Z,99980.03
2023-01-05T05:30:32.997Z,99974.00
2023-01-05T05:33:00.652Z,99974.84
2023-01-05T05:35:28.028Z,99983.56
2023-01-05T05:37:56.902Z,99991.38
2023-01-05T05:40:26.268Z,99982.66
2023-01-05T05:42:54.151Z,99983.50
2023-01-05T05:45:21.509Z,99991.28
2023-01-05T05:47:49.158Z,99984.31
2023-01-05T05:50:16.697Z,99974.84
2023-01-05T05:52:47.315Z,99982.62
2023-01-05T05:55:15.046Z,99974.81
2023-01-05T05:57:42.456Z,99971.37
2023-01-05T06:00:10.443Z,99974.81
2023-01-05T06:02:40.223Z,99976.56
2023-01-05T06:05:08.438Z,99960.97
2023-01-05T06:07:35.864Z,99960.12
2023-01-05T06:10:03.330Z,99979.16
2023-01-05T06:12:31.098Z,100012.97
2023-01-05T06:14:58.599Z,100000.03
2023-01-05T06:17:26.001Z,99984.38
2023-01-05T06:19:53.848Z,99987.84
2023-01-05T06:22:21.307Z,99988.69
2023-01-05T06:24:48.716Z,99980.06
2023-01-05T06:27:16.403Z,99980.91
2023-01-05T06:29:43.848Z,99977.38
2023-01-05T06:32:11.202Z,99967.84
2023-01-05T06:34:38.866Z,99952.22
2023-01-05T06:37:06.514Z,99946.13
2023-01-05T06:39:33.958Z,99947.84
2023-01-05T06:42:01.775Z,99946.97
2023-01-05T06:44:29.171Z,99933.94
2023-01-05T06:46:56.594Z,99937.41
2023-01-05T06:49:24.284Z,99930.50
2023-01-05T06:51:51.781Z,99924.41
2023-01-05T06:54:19.145Z,99922.59
2023-01-05T06:56:46.832Z,99908.75
2023-01-05T06:59:14.257Z,99910.44
2023-01-05T07:01:41.729Z,99915.59
2023-01-05T07:04:09.591Z,99915.66
2023-01-05T07:06:37.050Z,99917.31
2023-01-05T07:09:04.462Z,99912.97
2023-01-05T07:11:32.182Z,99898.25
2023-01-05T07:13:59.606Z,99901.75
2023-01-05T07:16:27.032Z,99904.34
2023-01-05T07:18:54.894Z,99903.44
2023-01-05T07:21:22.273Z,99893.06
2023-01-05T07:23:49.640Z,99895.59
2023-01-05T07:26:17.371Z,99904.28
2023-01-05T07:28:44.813Z,99908.69
2023-01-05T07:31:12.365Z,99920.78
2023-01-05T07:33:40.533Z,99917.25
2023-01-05T07:36:08.655Z,99917.06
2023-01-05T07:38:36.068Z,99922.31
2023-01-05T07:41:04.069Z,99914.69
2023-01-05T07:43:31.495Z,99901.75
2023-01-05T07:46:03.774Z,99903.44
2023-01-05T07:48:31.585Z,99901.72
2023-01-05T07:51:03.327Z,99896.63
2023-01-05T07:53:34.662Z,99895.78
2023-01-05T07:56:06.966Z,99898.38
2023-01-05T07:58:34.351Z,99899.28
2023-01-05T08:01:10.105Z,99879.25
2023-01-05T08:03:38.013Z,99895.00
2023-01-05T08:06:09.099Z,99906.12
2023-01-05T08:08:36.577Z,99901.84
2023-01-05T08:11:05.877Z,99900.97
2023-01-05T08:13:52.411Z,99895.00
2023-01-05T08:16:20.432Z,99897.62
2023-01-05T08:18:48.107Z,99882.03
2023-01-05T08:21:15.846Z,99878.63
2023-01-05T08:23:45.849Z,99871.66
2023-01-05T08:26:15.984Z,99861.28
2023-01-05T08:28:44.245Z,99856.97
2023-01-05T08:31:16.341Z,99862.16
2023-01-05T08:33:43.954Z,99878.56
2023-01-05T08:36:13.786Z,99873.31
2023-01-05T08:38:50.365Z,99867.16
2023-01-05T08:41:22.078Z,99859.22
2023-01-05T08:43:54.161Z,99861.72
2023-01-05T08:46:23.827Z,99865.28
2023-01-05T08:48:53.554Z,99862.63
2023-01-05T08:51:21.089Z,99852.91
2023-01-05T08:53:49.429Z,99876.53
2023-01-05T08:56:16.924Z,99873.81
2023-01-05T08:58:44.664Z,99858.72
2023-01-05T09:01:15.121Z,99854.44
2023-01-05T09:03:42.969Z,99864.94
2023-01-05T09:06:12.489Z,99862.47
2023-01-05T09:08:41.836Z,99861.75
2023-01-05T09:11:14.765Z,99873.06
2023-01-05T09:13:49.763Z,99881.88
2023-01-05T09:16:42.451Z,99888.06
2023-01-05T09:19:07.185Z,99883.66
2023-01-05T09:21:34.692Z,99888.06
2023-01-05T09:24:02.077Z,99885.50
2023-01-05T09:26:29.785Z,99888.09
2023-01-05T09:28:57.145Z,99882.03
2023-01-05T09:31:24.578Z,99876.78
2023-01-05T09:33:52.333Z,99871.59
2023-01-05T09:36:19.791Z,99861.22
2023-01-05T09:38:51.402Z,99849.94
2023-01-05T09:41:28.731Z,99841.19
2023-01-05T09:43:59.307Z,99840.25
2023-01-05T09:46:35.410Z,99842.00
2023-01-05T09:49:05.350Z,99828.97
2023-01-05T09:51:33.478Z,99822.00
2023-01-05T09:54:01.579Z,99819.34
2023-01-05T09:59:26.453Z,99825.56
2023-01-05T10:01:56.205Z,99816.91
2023-01-05T10:04:30.584Z,99815.97
2023-01-05T10:07:08.068Z,99812.41
2023-01-05T10:09:39.152Z,99799.34
2023-01-05T10:12:28.530Z,99796.78
2023-01-05T10:15:00.997Z,99805.50
2023-01-05T10:17:41.245Z,99797.84
2023-01-05T10:20:33.122Z,99789.94
2023-01-05T10:23:13.761Z,99786.44
2023-01-05T10:26:24.763Z,99781.97
2023-01-05T10:29:16.026Z,99814.91
2023-01-05T10:31:47.082Z,99815.84
2023-01-05T10:34:25.162Z,99806.16
2023-01-05T10:37:27.120Z,99799.97
2023-01-05T10:39:57.872Z,99803.50
2023-01-05T10:42:46.419Z,99809.72
2023-01-05T10:45:15.449Z,99795.75
2023-01-05T10:47:45.313Z,99795.75
2023-01-05T10:50:32.095Z,99799.97
2023-01-05T10:53:02.023Z,99805.31
2023-01-05T10:55:30.238Z,99808.75
2023-01-05T10:57:57.628Z,99811.59
2023-01-05T11:00:40.408Z,99802.66
2023-01-05T11:03:10.083Z,99806.84
2023-01-05T11:05:39.690Z,99792.34
2023-01-05T11:08:22.145Z,99831.75
2023-01-05T11:10:50.877Z,99829.88
2023-01-05T11:13:27.514Z,99836.78
2023-01-05T11:15:59.785Z,99836.72
2023-01-05T11:19:01.802Z,99833.31
2023-01-05T11:21:35.398Z,99843.69
2023-01-05T11:24:03.836Z,99847.97
2023-01-05T11:26:36.900Z,99854.22
2023-01-05T11:29:10.347Z,99846.41
2023-01-05T11:31:44.961Z,99851.63
2023-01-05T11:34:27.651Z,99873.25
2023-01-05T11:37:07.401Z,99864.59
2023-01-05T11:39:47.535Z,99882.88
2023-01-05T11:42:25.047Z,99889.84
2023-01-05T11:45:05.462Z,99885.56
2023-01-05T11:47:44.855Z,99889.91
2023-01-05T11:50:22.035Z,99877.72
2023-01-05T11:52:55.072Z,99888.19
2023-01-05T11:55:38.269Z,99873.34
2023-01-05T11:58:12.243Z,99870.78
2023-01-05T12:01:01.632Z,99852.44
2023-01-05T12:03:41.732Z,99855.09
2023-01-05T12:06:45.882Z,99858.53
2023-01-05T12:09:20.187Z,99866.31
2023-01-05T12:11:57.175Z,99877.63
2023-01-05T12:14:52.782Z,99892.41
2023-01-05T12:17:27.645Z,99886.37
2023-01-05T12:20:37.404Z,99901.97
2023-01-05T12:23:10.879Z,99892.44
2023-01-05T12:25:56.882Z,99901.19
2023-01-05T12:29:34.810Z,99902.06
2023-01-05T12:35:07.669Z,99892.47
2023-01-05T12:38:03.472Z,99889.00
2023-01-05T12:41:09.245Z,99885.56
2023-01-05T12:43:36.934Z,99879.47
2023-01-05T12:46:23.501Z,99871.63
2023-01-05T12:49:05.165Z,99873.41
2023-01-05T12:52:13.680Z,99869.94
2023-01-05T12:54:50.054Z,99855.16
2023-01-05T12:57:25.024Z,99836.91
2023-01-05T12:59:53.391Z,99829.91
2023-01-05T13:02:37.095Z,99823.88
2023-01-05T13:05:14.372Z,99827.38
2023-01-05T13:07:47.745Z,99825.59
2023-01-05T13:10:45.702Z,99817.66
2023-01-05T13:13:15.379Z,99807.31
2023-01-05T13:15:50.830Z,99810.75
2023-01-05T13:18:19.231Z,99810.72
2023-01-05T13:20:53.664Z,99814.31
2023-01-05T13:23:25.527Z,99815.94
2023-01-05T13:26:00.168Z,99821.19
2023-01-05T13:28:29.999Z,99821.25
2023-01-05T13:31:16.162Z,99819.56
2023-01-05T13:34:22.278Z,99814.31
2023-01-05T13:37:11.555Z,99818.69
2023-01-05T13:39:50.915Z,99811.75
2023-01-05T13:42:32.979Z,99823.88
2023-01-05T13:45:09.085Z,99818.63
2023-01-05T13:47:49.252Z,99816.88
2023-01-05T13:50:45.873Z,99826.44
2023-01-05T13:55:57.809Z,99820.38
2023-01-05T13:58:46.235Z,99822.16
2023-01-05T14:01:16.266Z,99815.25
2023-01-05T14:03:50.702Z,99817.84
2023-01-05T14:06:27.426Z,99819.59
2023-01-05T14:11:32.392Z,99831.66
2023-01-05T14:14:20.143Z,99834.37
2023-01-05T14:16:48.721Z,99842.16
2023-01-05T14:22:21.893Z,99835.25
2023-01-05T14:24:49.822Z,99843.94
2023-01-05T14:27:24.561Z,99842.22
2023-01-05T14:29:52.392Z,99854.38
2023-01-05T14:32:28.430Z,99856.09
2023-01-05T14:37:36.497Z,99871.72
2023-01-05T14:40:18.224Z,99870.81
2023-01-05T14:42:47.967Z,99872.56
2023-01-05T14:45:22.762Z,99876.03
2023-01-05T14:47:52.783Z,99882.09
2023-01-05T14:50:43.829Z,99879.53
2023-01-05T14:53:14.440Z,99873.44
2023-01-05T14:56:03.372Z,99863.87
2023-01-05T14:58:33.569Z,99882.97
2023-01-05T15:01:19.137Z,99876.91
2023-01-05T15:04:11.662Z,99888.19
2023-01-05T15:06:42.272Z,99886.44
2023-01-05T15:09:21.955Z,99896.84
2023-01-05T15:12:23.942Z,99895.97
2023-01-05T15:14:54.527Z,99907.25
2023-01-05T15:17:30.978Z,99899.47
2023-01-05T15:20:13.415Z,99889.06
2023-01-05T15:23:03.655Z,99895.06
2023-01-05T15:25:30.917Z,99896.84
2023-01-05T15:28:17.326Z,99890.75
2023-01-05T15:30:53.266Z,99903.78
2023-01-05T15:33:30.524Z,99907.25
2023-01-05T15:36:02.063Z,99905.50
2023-01-05T15:38:30.782Z,99906.38
2023-01-05T15:41:09.561Z,99911.56
2023-01-05T15:43:39.595Z,99906.41
2023-01-05T15:46:07.450Z,99906.38
2023-01-05T15:48:38.505Z,99906.38
2023-01-05T15:51:06.505Z,99901.19
2023-01-05T15:53:38.077Z,99907.25
2023-01-05T15:56:27.083Z,99906.38
2023-01-05T15:58:54.522Z,99909.87
2023-01-05T16:01:22.339Z,99915.06
2023-01-05T16:03:50.480Z,99919.41
2023-01-05T16:06:22.507Z,99921.12
2023-01-05T16:08:52.362Z,99918.53
2023-01-05T16:11:32.513Z,99930.66
2023-01-05T16:14:04.616Z,99915.94
2023-01-05T16:16:51.990Z,99933.28
2023-01-05T16:19:28.013Z,99933.28
2023-01-05T16:22:12.732Z,99935.00
2023-01-05T16:24:51.814Z,99927.19
2023-01-05T16:27:19.387Z,99943.66
2023-01-05T16:29:48.502Z,99949.75
2023-01-05T16:32:30.737Z,99942.81
2023-01-05T16:35:33.075Z,99945.44
2023-01-05T16:38:09.733Z,99958.44
2023-01-05T16:41:03.500Z,99958.44
2023-01-05T16:43:41.529Z,99963.63
2023-01-05T16:46:16.655Z,99964.47
2023-01-05T16:48:48.175Z,99958.44
2023-01-05T16:51:21.625Z,99958.41
2023-01-05T16:53:55.414Z,99960.16
2023-01-05T16:56:57.842Z,99972.28
2023-01-05T16:59:47.743Z,99960.16
2023-01-05T17:02:38.493Z,99961.03
2023-01-05T17:05:06.819Z,99958.44
2023-01-05T17:07:38.249Z,99956.72
2023-01-05T17:10:07.605Z,99977.50
2023-01-05T17:12:35.349Z,99961.03
2023-01-05T17:15:05.769Z,99971.47
2023-01-05T17:17:33.455Z,99970.53
2023-01-05T17:20:01.147Z,99977.53
2023-01-05T17:22:29.005Z,99972.31
2023-01-05T17:24:56.479Z,99973.19
2023-01-05T17:27:24.221Z,99959.31
2023-01-05T17:29:53.207Z,99948.03
2023-01-05T17:32:20.733Z,99948.03
2023-01-05T17:34:48.417Z,99954.97
2023-01-05T17:37:16.632Z,99957.56
2023-01-05T17:39:44.081Z,99962.78
2023-01-05T17:42:30.023Z,99974.88
2023-01-05T17:44:57.413Z,99982.75
2023-01-05T17:47:25.065Z,99990.47
2023-01-05T17:49:52.471Z,99990.53
2023-01-05T17:52:19.837Z,100008.78
2023-01-05T17:54:47.595Z,100009.63
2023-01-05T17:57:15.048Z,99999.16
2023-01-05T17:59:44.607Z,99999.22
2023-01-05T18:02:12.374Z,99999.19
2023-01-05T18:04:40.247Z,99999.19
2023-01-05T18:09:37.963Z,99991.41
2023-01-05T18:12:06.042Z,99997.47
2023-01-05T18:14:33.469Z,99993.84
2023-01-05T18:17:00.945Z,99984.34
2023-01-05T18:19:29.472Z,99993.03
2023-01-05T18:21:58.978Z,99985.31
2023-01-05T18:24:26.636Z,99989.66
2023-01-05T18:26:55.903Z,99991.38
2023-01-05T18:29:23.615Z,99993.94
2023-01-05T18:31:50.977Z,99985.28
2023-01-05T18:34:18.815Z,99987.94
2023-01-05T18:36:47.318Z,99995.72
2023-01-05T18:39:16.381Z,99989.56
2023-01-05T18:41:44.349Z,99991.31
2023-01-05T18:44:11.753Z,99992.22
2023-01-05T18:46:39.253Z,99984.44
2023-01-05T18:49:07.042Z,99993.06
2023-01-05T18:51:34.457Z,99985.28
2023-01-05T18:54:01.865Z,99987.81
2023-01-05T18:56:29.573Z,99978.34
2023-01-05T18:58:57.481Z,99989.56
2023-01-05T19:01:25.361Z,99983.59
2023-01-05T19:03:53.731Z,99984.38
2023-01-05T19:06:25.828Z,99979.22
2023-01-05T19:08:53.533Z,99985.31
2023-01-05T19:11:26.052Z,99982.66
2023-01-05T19:13:59.466Z,99987.00
2023-01-05T19:16:29.514Z,99993.03
2023-01-05T19:19:04.982Z,99999.06
2023-01-05T19:21:34.071Z,99995.59
2023-01-05T19:24:02.340Z,99997.41
2023-01-05T19:26:32.040Z,100005.19
2023-01-05T19:29:01.264Z,100026.94
2023-01-05T19:31:30.334Z,100025.16
2023-01-05T19:34:00.561Z,100027.72
2023-01-05T19:36:32.372Z,100017.25
2023-01-05T19:39:27.209Z,100023.44
2023-01-05T19:41:54.844Z,100025.91
2023-01-05T19:44:22.830Z,100032.00
2023-01-05T19:46:53.175Z,100035.56
2023-01-05T19:49:27.698Z,100043.31
2023-01-05T19:51:55.839Z,100052.00
2023-01-05T19:54:25.477Z,100041.63
2023-01-05T19:56:54.666Z,100046.84
2023-01-05T19:59:26.221Z,100033.72
2023-01-05T20:01:56.099Z,100045.09
2023-01-05T20:04:24.035Z,100047.66
2023-01-05T20:06:51.445Z,100055.41
2023-01-05T20:09:19.359Z,100056.25
2023-01-05T20:11:49.171Z,100056.41
2023-01-05T20:14:21.911Z,100057.13
2023-01-05T20:16:55.430Z,100055.34
2023-01-05T20:19:25.753Z,100064.81
2023-01-05T20:21:54.874Z,100065.84
2023-01-05T20:24:25.270Z,100073.72
2023-01-05T20:26:55.895Z,100070.16
2023-01-05T20:29:23.927Z,100064.09
2023-01-05T20:31:54.405Z,100066.53
2023-01-05T20:34:23.698Z,100067.50
2023-01-05T20:36:51.283Z,100072.78
2023-01-05T20:39:22.051Z,100076.09
2023-01-05T20:41:51.534Z,100078.59
2023-01-05T20:44:21.678Z,100076.16
2023-01-05T20:46:50.469Z,100070.13
2023-01-05T20:49:18.312Z,100078.81
2023-01-05T20:51:46.105Z,100083.91
2023-01-05T20:54:14.256Z,100087.53
2023-01-05T20:56:43.712Z,100097.91
2023-01-05T20:59:14.062Z,100097.91
2023-01-05T21:01:42.095Z,100096.94
2023-01-05T21:04:09.535Z,100100.38
2023-01-05T21:06:37.200Z,100112.28
2023-01-05T21:09:05.532Z,100113.38
2023-01-05T21:11:32.913Z,100113.53
2023-01-05T21:14:00.998Z,100113.47
2023-01-05T21:16:36.240Z,100122.06
2023-01-05T21:19:05.546Z,100127.22
2023-01-05T21:21:34.489Z,100124.63
2023-01-05T21:24:02.759Z,100125.56
2023-01-05T21:26:30.188Z,100126.25
2023-01-05T21:28:57.877Z,100124.59
2023-01-05T21:31:26.064Z,100122.06
2023-01-05T21:33:54.356Z,100131.44
2023-01-05T21:36:24.700Z,100128.00
2023-01-05T21:39:03.565Z,100128.91
2023-01-05T21:41:51.063Z,100132.25
2023-01-05T21:44:18.796Z,100125.28
2023-01-05T21:46:47.443Z,100133.81
2023-01-05T21:49:15.060Z,100133.00
2023-01-05T21:52:01.615Z,100142.69
2023-01-05T21:54:48.416Z,100137.44
2023-01-05T21:57:15.884Z,100149.81
2023-01-05T21:59:43.773Z,100142.81
2023-01-05T22:02:11.784Z,100147.22
2023-01-05T22:04:39.596Z,100143.50
2023-01-05T22:07:07.443Z,100145.37
2023-01-05T22:09:35.668Z,100133.31
2023-01-05T22:12:07.182Z,100137.50
2023-01-05T22:14:36.234Z,100130.38
2023-01-05T22:17:05.525Z,100133.97
2023-01-05T22:19:33.259Z,100133.03
2023-01-05T22:22:00.664Z,100137.44
2023-01-05T22:24:29.941Z,100135.87
2023-01-05T22:26:57.296Z,100134.12
2023-01-05T22:29:25.176Z,100131.63
2023-01-05T22:31:52.989Z,100142.81
2023-01-05T22:34:20.537Z,100147.12
2023-01-05T22:36:49.013Z,100151.09
2023-01-05T22:39:17.210Z,100158.09
2023-01-05T22:41:46.407Z,100168.06
2023-01-05T22:44:13.884Z,100169.94
2023-01-05T22:46:41.690Z,100170.00
2023-01-05T22:49:13.027Z,100174.34
2023-01-05T22:51:44.699Z,100183.22
2023-01-05T22:54:12.399Z,100190.19
2023-01-05T22:56:40.038Z,100205.72
2023-01-05T22:59:07.941Z,100202.31
2023-01-05T23:01:43.111Z,100203.19
2023-01-05T23:04:11.616Z,100209.28
2023-01-05T23:06:39.391Z,100218.03
2023-01-05T23:09:09.302Z,100223.22
2023-01-05T23:11:39.276Z,100220.63
2023-01-05T23:14:08.714Z,100230.94
2023-01-05T23:16:36.586Z,100234.38
2023-01-05T23:19:05.683Z,100232.78
2023-01-05T23:21:33.343Z,100236.28
2023-01-05T23:24:00.990Z,100236.28
2023-01-05T23:26:29.040Z,100235.41
2023-01-05T23:28:56.711Z,100238.81
2023-01-05T23:31:24.409Z,100240.53
2023-01-05T23:33:52.079Z,100232.78
2023-01-05T23:36:20.449Z,100227.53
2023-01-05T23:38:48.334Z,100229.25
2023-01-05T23:41:17.351Z,100232.75
2023-01-05T23:43:45.785Z,100229.19
2023-01-05T23:46:20.103Z,100236.22
2023-01-05T23:48:49.130Z,100233.59
2023-01-05T23:51:18.213Z,100236.09
2023-01-05T23:53:48.345Z,100229.19
2023-01-05T23:56:18.714Z,100231.75
2023-01-05T23:58:47.072Z,100230.81
